Time;durP1;ratioP1;P1;durP2;ratioP2;P2;SDS_P1;SDS_P2;PMS_P1;PMS_P2;Temp;Humidity;BMP_temperature;BMP_pressure;BME280_temperature;BME280_humidity;BME280_pressure;Samples;Min_cycle;Max_cycle;Signal;HPM_P1;HPM_P2
2022/12/22 03:25:53;;;;;;;10.48;4.28;;;;;;;10.15;100.00;101425.84;2097240;28;20102;-77
2022/12/22 03:27:15;;;;;;;11.48;4.75;;;;;;;10.15;100.00;101428.50;2101105;28;20051;-78
2022/12/22 03:28:38;;;;;;;7.80;3.88;;;;;;;10.15;100.00;101431.13;2089354;28;20048;-77
2022/12/22 03:29:59;;;;;;;8.27;4.45;;;;;;;10.16;100.00;101434.66;2092334;28;20106;-77
2022/12/22 03:31:23;;;;;;;9.18;3.63;;;;;;;10.15;100.00;101427.59;2095206;28;20067;-76
2022/12/22 03:32:45;;;;;;;8.65;3.72;;;;;;;10.16;100.00;101429.38;2101565;28;20040;-77
2022/12/22 03:34:08;;;;;;;8.18;3.92;;;;;;;10.18;100.00;101435.59;2093410;28;20049;-77
2022/12/22 03:35:29;;;;;;;9.77;4.35;;;;;;;10.21;100.00;101441.00;2098862;28;20500;-76
2022/12/22 03:36:51;;;;;;;12.05;4.18;;;;;;;10.22;100.00;101441.03;2088312;28;20056;-76
2022/12/22 03:38:13;;;;;;;12.85;5.90;;;;;;;10.24;100.00;101428.75;2098249;28;20043;-76
2022/12/22 03:39:36;;;;;;;18.38;9.35;;;;;;;10.24;100.00;101436.66;2085298;28;20065;-76
2022/12/22 03:40:58;;;;;;;27.60;14.18;;;;;;;10.26;100.00;101434.09;2097102;28;20101;-77
2022/12/22 03:47:35;;;;;;;26.23;15.57;;;;;;;10.39;100.00;101439.75;2069436;28;20038;-77
2022/12/22 03:49:09;;;;;;;19.25;12.55;;;;;;;10.45;100.00;101439.00;2067433;28;20402;-77
2022/12/22 03:50:32;;;;;;;11.55;7.60;;;;;;;10.51;100.00;101447.09;2071469;28;20053;-77
2022/12/22 03:51:54;;;;;;;11.98;6.05;;;;;;;10.55;100.00;101442.81;2069766;28;20045;-76
2022/12/22 03:53:17;;;;;;;13.20;6.57;;;;;;;10.59;100.00;101444.66;2097755;28;20044;-77
2022/12/22 03:54:38;;;;;;;14.88;7.30;;;;;;;10.61;100.00;101446.50;2101153;28;20044;-76
2022/12/22 03:56:00;;;;;;;14.32;9.38;;;;;;;10.65;100.00;101450.09;2086355;28;20053;-77
2022/12/22 03:57:23;;;;;;;11.57;7.25;;;;;;;10.70;100.00;101448.47;2084053;28;20140;-77
2022/12/22 03:58:44;;;;;;;12.52;8.15;;;;;;;10.75;100.00;101447.75;2107493;28;20142;-77
2022/12/22 04:00:07;;;;;;;8.95;5.00;;;;;;;10.78;100.00;101446.91;2096405;28;20056;-76
2022/12/22 04:01:37;;;;;;;10.13;4.72;;;;;;;10.83;100.00;101444.41;2093476;28;20048;-76
2022/12/22 04:03:01;;;;;;;8.18;4.20;;;;;;;10.87;100.00;101439.25;2102293;28;20048;-77
2022/12/22 04:04:25;;;;;;;10.15;4.45;;;;;;;10.90;100.00;101447.22;2102091;28;20044;-77
2022/12/22 04:05:49;;;;;;;10.10;3.88;;;;;;;10.93;100.00;101447.31;2103634;28;20052;-77
2022/12/22 04:07:12;;;;;;;10.00;4.07;;;;;;;10.95;100.00;101447.38;2094588;28;20098;-77
2022/12/22 04:08:33;;;;;;;8.63;3.75;;;;;;;10.97;100.00;101454.44;2099028;28;20484;-76
2022/12/22 04:13:15;;;;;;;13.70;5.22;;;;;;;11.08;100.00;101460.03;2105408;28;20044;-77
2022/12/22 04:14:37;;;;;;;12.02;6.55;;;;;;;11.10;100.00;101456.53;2087337;28;20045;-76
2022/12/22 04:15:59;;;;;;;14.40;7.57;;;;;;;11.12;100.00;101449.56;2092124;28;20508;-77
2022/12/22 04:17:21;;;;;;;9.80;5.10;;;;;;;11.16;100.00;101454.03;2106952;28;20053;-77
2022/12/22 04:18:45;;;;;;;12.88;6.80;;;;;;;11.19;100.00;101455.88;2100205;28;20044;-77
2022/12/22 04:20:08;;;;;;;12.93;5.90;;;;;;;11.21;100.00;101455.94;2100377;28;20044;-77
2022/12/22 04:21:29;;;;;;;11.43;4.20;;;;;;;11.24;100.00;101458.63;2100064;28;20070;-77
2022/12/22 04:22:52;;;;;;;11.68;5.40;;;;;;;11.26;100.00;101459.56;2099917;28;20157;-77
2022/12/22 04:24:13;;;;;;;11.43;5.43;;;;;;;11.27;100.00;101461.34;2104674;28;20512;-77
2022/12/22 04:25:36;;;;;;;11.57;5.55;;;;;;;11.27;100.00;101456.97;2102824;28;20143;-77
2022/12/22 04:26:57;;;;;;;9.55;4.45;;;;;;;11.27;100.00;101454.31;2102614;28;20044;-77
2022/12/22 04:28:19;;;;;;;7.70;3.80;;;;;;;11.25;100.00;101461.31;2102776;28;20048;-77
2022/12/22 04:29:41;;;;;;;8.43;3.42;;;;;;;11.27;100.00;101458.72;2086025;28;20052;-77
2022/12/22 04:31:03;;;;;;;6.78;3.78;;;;;;;11.27;100.00;101458.72;2089055;28;20053;-77
2022/12/22 04:32:25;;;;;;;7.88;4.18;;;;;;;11.28;100.00;101452.56;2100234;28;20039;-77
2022/12/22 04:33:49;;;;;;;11.25;4.65;;;;;;;11.27;100.00;101459.59;2102492;28;20052;-77
2022/12/22 04:35:11;;;;;;;11.88;4.53;;;;;;;11.28;100.00;101461.41;2086279;28;20378;-77
2022/12/22 04:36:33;;;;;;;11.50;5.15;;;;;;;11.28;100.00;101464.03;2091619;28;20046;-77
2022/12/22 04:37:55;;;;;;;9.30;4.30;;;;;;;11.30;100.00;101464.94;2086136;28;20057;-77
2022/12/22 04:39:18;;;;;;;11.13;5.57;;;;;;;11.32;100.00;101465.88;2091974;28;20056;-77
2022/12/22 04:40:39;;;;;;;11.73;5.20;;;;;;;11.33;100.00;101465.03;2102601;28;20098;-78
2022/12/22 04:42:02;;;;;;;10.77;5.88;;;;;;;11.35;100.00;101463.34;2096983;28;20175;-77
2022/12/22 04:43:24;;;;;;;13.02;6.63;;;;;;;11.35;100.00;101467.72;2096637;28;20547;-77
2022/12/22 04:44:47;;;;;;;8.07;6.18;;;;;;;11.36;100.00;101469.47;2102875;28;20056;-77
2022/12/22 04:46:09;;;;;;;11.70;6.00;;;;;;;11.37;100.00;101468.63;2105419;28;20048;-77
2022/12/22 04:47:30;;;;;;;9.57;5.30;;;;;;;11.38;100.00;101468.69;2096776;28;20053;-77
2022/12/22 04:48:54;;;;;;;11.55;5.97;;;;;;;11.39;100.00;101462.53;2094239;28;20141;-76
2022/12/22 04:50:15;;;;;;;11.63;6.43;;;;;;;11.40;100.00;101471.38;2102319;28;20060;-78
2022/12/22 04:51:38;;;;;;;12.27;7.05;;;;;;;11.41;100.00;101470.50;2101367;28;20043;-76
2022/12/22 04:53:00;;;;;;;9.32;6.20;;;;;;;11.42;100.00;101474.94;2102663;28;20067;-77
2022/12/22 04:54:23;;;;;;;12.02;7.10;;;;;;;11.42;100.00;101467.00;2093951;28;20032;-77
2022/12/22 04:55:45;;;;;;;12.50;8.00;;;;;;;11.43;100.00;101472.31;2091969;28;20056;-77
2022/12/22 04:57:08;;;;;;;13.07;7.82;;;;;;;11.44;100.00;101462.63;2092733;28;20079;-77
2022/12/22 04:58:31;;;;;;;15.45;8.13;;;;;;;11.44;100.00;101471.47;2098931;28;20101;-77
2022/12/22 04:59:54;;;;;;;12.13;8.77;;;;;;;11.45;100.00;101478.53;2096924;28;20214;-77
2022/12/22 05:01:18;;;;;;;12.50;8.57;;;;;;;11.46;100.00;101471.50;2102703;28;20617;-77
2022/12/22 05:02:40;;;;;;;11.40;7.47;;;;;;;11.45;100.00;101473.25;2110029;28;20039;-78
2022/12/22 05:04:03;;;;;;;10.15;5.80;;;;;;;11.44;100.00;101475.84;2103870;28;20059;-77
2022/12/22 05:05:25;;;;;;;11.65;6.55;;;;;;;11.42;100.00;101481.09;2096876;28;20101;-77
2022/12/22 05:06:51;;;;;;;15.02;5.88;;;;;;;11.40;100.00;101479.28;2097950;28;20040;-77
2022/12/22 05:08:12;;;;;;;10.82;5.13;;;;;;;11.39;100.00;101486.31;2093450;28;20480;-77
2022/12/22 05:09:34;;;;;;;16.65;10.13;;;;;;;11.38;100.00;101484.53;2085823;28;20139;-77
2022/12/22 05:10:55;;;;;;;21.70;17.42;;;;;;;11.36;100.00;101480.94;2099359;28;20052;-77
2022/12/22 05:13:58;;;;;;;20.13;16.83;;;;;;;11.37;100.00;101485.38;2095964;28;20579;-77
2022/12/22 05:15:19;;;;;;;37.40;33.42;;;;;;;11.38;100.00;101481.91;2099628;28;20471;-77
2022/12/22 05:16:42;;;;;;;32.92;28.50;;;;;;;11.39;100.00;101480.16;2102394;28;20477;-77
2022/12/22 05:18:05;;;;;;;25.60;21.98;;;;;;;11.40;100.00;101480.19;2102233;28;20051;-77
2022/12/22 05:19:29;;;;;;;23.65;19.67;;;;;;;11.40;100.00;101481.94;2102507;28;20040;-77
2022/12/22 05:20:51;;;;;;;23.73;20.65;;;;;;;11.39;100.00;101478.41;2101618;28;20051;-77
2022/12/22 05:22:12;;;;;;;26.60;22.25;;;;;;;11.39;100.00;101481.03;2094176;28;20856;-77
2022/12/22 05:23:35;;;;;;;18.40;14.63;;;;;;;11.38;100.00;101481.00;2107053;28;20039;-77
2022/12/22 05:24:56;;;;;;;19.05;14.30;;;;;;;11.37;100.00;101481.84;2096538;28;20064;-77
2022/12/22 05:26:19;;;;;;;19.63;13.73;;;;;;;11.37;100.00;101481.84;2099631;28;20113;-77
2022/12/22 05:27:41;;;;;;;19.38;13.05;;;;;;;11.37;100.00;101484.50;2102470;28;20534;-77
2022/12/22 05:29:03;;;;;;;27.25;21.02;;;;;;;11.35;100.00;101478.31;2094033;28;20151;-77
2022/12/22 05:30:25;;;;;;;35.85;29.65;;;;;;;11.35;100.00;101478.31;2098710;28;20028;-77
2022/12/22 05:31:47;;;;;;;44.90;36.65;;;;;;;11.33;100.00;101486.19;2102029;28;20052;-77
2022/12/22 05:33:09;;;;;;;45.45;37.08;;;;;;;11.32;100.00;101483.50;2096609;28;20814;-77
2022/12/22 05:34:32;;;;;;;59.78;52.63;;;;;;;11.29;100.00;101494.00;2093730;28;20699;-77
2022/12/22 05:35:55;;;;;;;62.85;54.45;;;;;;;11.27;100.00;101490.44;2093871;28;20101;-77
2022/12/22 05:37:16;;;;;;;66.50;56.47;;;;;;;11.26;100.00;101493.91;2094135;28;20101;-79
2022/12/22 05:38:38;;;;;;;68.60;56.92;;;;;;;11.23;100.00;101489.44;2093748;28;20082;-76
2022/12/22 05:40:00;;;;;;;58.40;48.88;;;;;;;11.25;100.00;101490.38;2085411;28;20052;-77
2022/12/22 05:41:22;;;;;;;59.70;51.13;;;;;;;11.27;100.00;101491.31;2097624;28;20098;-76
2022/12/22 05:42:45;;;;;;;66.65;58.95;;;;;;;11.28;100.00;101486.94;2093959;28;20052;-77
2022/12/22 05:44:06;;;;;;;73.97;62.85;;;;;;;11.28;100.00;101495.75;2091038;28;20055;-77
2022/12/22 05:45:29;;;;;;;87.30;76.80;;;;;;;11.29;100.00;101488.72;2106379;28;20612;-77
2022/12/22 05:46:51;;;;;;;63.97;51.67;;;;;;;11.31;100.00;101490.53;2095509;28;20044;-77
2022/12/22 05:48:14;;;;;;;45.03;37.53;;;;;;;11.33;100.00;101486.19;2099611;28;20559;-77
2022/12/22 05:49:36;;;;;;;30.95;24.30;;;;;;;11.33;100.00;101483.53;2102191;28;20462;-76
2022/12/22 05:50:59;;;;;;;30.42;24.38;;;;;;;11.35;100.00;101486.22;2093781;28;20124;-77
2022/12/22 05:52:20;;;;;;;28.13;21.20;;;;;;;11.37;100.00;101492.41;2099804;28;20052;-77
2022/12/22 05:53:42;;;;;;;36.33;30.45;;;;;;;11.36;100.00;101488.00;2101084;28;20117;-77
2022/12/22 05:55:05;;;;;;;35.70;29.42;;;;;;;11.39;100.00;101490.72;2101085;28;20044;-77
2022/12/22 05:56:27;;;;;;;50.00;42.95;;;;;;;11.40;100.00;101489.88;2102147;28;20109;-77
2022/12/22 05:57:48;;;;;;;110.72;96.00;;;;;;;11.43;100.00;101497.84;2093988;28;20044;-77
2022/12/22 05:59:11;;;;;;;123.55;108.93;;;;;;;11.45;100.00;101496.16;2085283;28;20654;-77
2022/12/22 06:00:33;;;;;;;179.35;156.57;;;;;;;11.48;100.00;101493.59;2101364;28;20056;-77
2022/12/22 06:01:55;;;;;;;203.73;181.05;;;;;;;11.53;100.00;101499.88;2091706;28;20044;-76
2022/12/22 06:03:18;;;;;;;179.30;156.48;;;;;;;11.57;100.00;101499.06;2091084;28;20106;-77
2022/12/22 06:04:41;;;;;;;157.23;138.45;;;;;;;11.62;100.00;101505.34;2102046;28;20551;-77
2022/12/22 06:06:04;;;;;;;165.23;147.05;;;;;;;11.68;100.00;101497.59;2095234;28;20056;-78
2022/12/22 06:07:27;;;;;;;155.50;135.00;;;;;;;11.71;100.00;101497.66;2097266;28;20101;-77
2022/12/22 06:08:49;;;;;;;128.23;113.60;;;;;;;11.75;100.00;101503.94;2103424;28;20048;-77
2022/12/22 06:10:12;;;;;;;98.22;86.43;;;;;;;11.76;100.00;101503.97;2102041;28;20059;-77
2022/12/22 06:11:34;;;;;;;80.50;71.80;;;;;;;11.78;100.00;101501.34;2093437;28;20036;-77
2022/12/22 06:12:57;;;;;;;65.63;56.35;;;;;;;11.79;100.00;101500.50;2099388;28;20051;-78
2022/12/22 06:14:19;;;;;;;61.20;50.10;;;;;;;11.84;100.00;101512.06;2099184;28;20047;-77
2022/12/22 06:15:40;;;;;;;50.50;41.83;;;;;;;11.87;100.00;101510.41;2102022;28;20381;-77
2022/12/22 06:17:03;;;;;;;53.38;45.75;;;;;;;11.92;100.00;101507.84;2096683;28;20127;-77
2022/12/22 06:18:27;;;;;;;53.20;43.55;;;;;;;11.97;100.00;101514.13;2100204;28;20044;-78
2022/12/22 06:19:51;;;;;;;44.67;37.75;;;;;;;12.01;100.00;101505.44;2104490;28;20052;-77
2022/12/22 06:21:13;;;;;;;45.15;38.30;;;;;;;12.03;100.00;101505.44;2092865;28;20049;-77
2022/12/22 06:22:35;;;;;;;41.08;35.08;;;;;;;12.08;100.00;101511.75;2086052;28;20045;-77
2022/12/22 06:23:58;;;;;;;42.10;37.00;;;;;;;12.12;100.00;101510.94;2097787;28;20044;-77
2022/12/22 06:25:20;;;;;;;39.75;33.53;;;;;;;12.15;100.00;101511.88;2094011;28;20040;-77
2022/12/22 06:26:42;;;;;;;42.85;36.28;;;;;;;12.16;100.00;101507.47;2098198;28;20059;-77
2022/12/22 06:28:05;;;;;;;45.63;40.67;;;;;;;12.20;100.00;101509.34;2103317;28;20101;-77
2022/12/22 06:29:27;;;;;;;49.50;42.40;;;;;;;12.20;100.00;101507.59;2099525;28;20047;-78
2022/12/22 06:30:50;;;;;;;51.13;42.20;;;;;;;12.21;100.00;101506.72;2093334;28;20103;-77
2022/12/22 06:32:12;;;;;;;45.65;39.83;;;;;;;12.23;100.00;101512.03;2102188;28;20557;-77
2022/12/22 06:33:35;;;;;;;51.88;41.92;;;;;;;12.24;100.00;101520.03;2092599;28;20513;-77
2022/12/22 06:34:58;;;;;;;56.80;48.67;;;;;;;12.25;100.00;101515.63;2097276;28;20037;-77
2022/12/22 06:36:21;;;;;;;55.65;47.70;;;;;;;12.25;100.00;101516.53;2101000;28;20040;-77
2022/12/22 06:37:44;;;;;;;28.48;22.63;;;;;;;12.27;100.00;101524.50;2099372;28;20044;-77
2022/12/22 06:39:06;;;;;;;62.67;52.20;;;;;;;12.29;100.00;101518.34;2092816;28;20771;-78
2022/12/22 06:40:28;;;;;;;59.17;51.67;;;;;;;12.28;100.00;101523.59;2085727;28;20564;-78
2022/12/22 06:43:29;;;;;;;39.55;32.78;;;;;;;12.23;100.00;101517.34;2104268;28;20048;-77
2022/12/22 06:44:53;;;;;;;29.27;25.25;;;;;;;12.21;100.00;101521.69;2103471;28;20044;-78
2022/12/22 06:46:16;;;;;;;17.15;14.05;;;;;;;12.19;100.00;101516.41;2099141;28;20044;-76
2022/12/22 06:47:38;;;;;;;16.35;9.60;;;;;;;12.19;100.00;101523.44;2101872;28;20048;-77
2022/12/22 06:49:01;;;;;;;15.02;7.03;;;;;;;12.20;100.00;101522.59;2100710;28;20051;-77
2022/12/22 06:50:24;;;;;;;12.38;6.80;;;;;;;12.20;100.00;101528.78;2103232;28;20075;-78
2022/12/22 06:51:46;;;;;;;13.23;8.02;;;;;;;12.21;100.00;101529.63;2093973;28;20052;-77
2022/12/22 06:53:09;;;;;;;15.15;7.95;;;;;;;12.23;100.00;101527.91;2100416;28;20131;-77
2022/12/22 06:54:32;;;;;;;14.20;7.65;;;;;;;12.25;100.00;101532.41;2091754;28;20048;-77
2022/12/22 06:55:54;;;;;;;13.38;7.85;;;;;;;12.27;100.00;101529.78;2098599;28;20519;-77
2022/12/22 06:57:17;;;;;;;10.85;7.00;;;;;;;12.31;100.00;101532.53;2101062;28;20907;-76
2022/12/22 06:58:38;;;;;;;10.38;7.22;;;;;;;12.36;100.00;101530.88;2092765;28;20052;-77
2022/12/22 07:00:00;;;;;;;13.70;6.10;;;;;;;12.42;100.00;101538.03;2095934;28;20629;-77
2022/12/22 07:01:23;;;;;;;11.77;6.57;;;;;;;12.49;100.00;101542.59;2086900;28;20032;-77
2022/12/22 07:02:45;;;;;;;10.65;5.93;;;;;;;12.54;100.00;101537.38;2096147;28;20109;-77
2022/12/22 07:04:08;;;;;;;13.05;6.95;;;;;;;12.58;100.00;101542.78;2090779;28;20037;-78
2022/12/22 07:05:32;;;;;;;14.30;8.98;;;;;;;12.63;100.00;101537.56;2091002;28;20501;-78
2022/12/22 07:06:55;;;;;;;21.02;15.88;;;;;;;12.71;100.00;101544.81;2093317;28;20075;-77
2022/12/22 07:08:17;;;;;;;24.23;18.13;;;;;;;12.81;100.00;101542.31;2097275;28;20809;-77
2022/12/22 07:09:40;;;;;;;25.23;19.92;;;;;;;12.88;100.00;101538.94;2093605;28;20421;-77
2022/12/22 07:11:01;;;;;;;26.38;22.55;;;;;;;12.95;100.00;101535.53;2090912;28;20099;-78
2022/12/22 07:12:24;;;;;;;42.17;34.08;;;;;;;13.01;100.00;101538.28;2097919;28;20053;-77
2022/12/22 07:13:46;;;;;;;39.80;35.53;;;;;;;13.07;100.00;101534.00;2093464;28;20540;-78
2022/12/22 07:15:10;;;;;;;26.73;23.40;;;;;;;13.18;100.00;101539.53;2091029;28;20056;-78
2022/12/22 07:16:32;;;;;;;34.10;29.35;;;;;;;13.26;100.00;101540.53;2099579;28;20074;-77
2022/12/22 07:17:55;;;;;;;37.53;33.50;;;;;;;13.33;100.00;101546.84;2093430;28;20052;-78
2022/12/22 07:19:17;;;;;;;30.75;27.17;;;;;;;13.37;100.00;101544.28;2092563;28;20049;-77
2022/12/22 07:20:41;;;;;;;27.65;23.02;;;;;;;13.45;100.00;101547.97;2092282;28;20519;-77
2022/12/22 07:22:03;;;;;;;31.02;25.60;;;;;;;13.50;100.00;101546.28;2093061;28;20052;-78
2022/12/22 07:23:25;;;;;;;28.58;25.38;;;;;;;13.57;100.00;101553.47;2097924;28;20679;-78
2022/12/22 07:24:48;;;;;;;30.80;25.45;;;;;;;13.64;100.00;101545.59;2102507;28;20562;-78
2022/12/22 07:26:12;;;;;;;25.58;20.95;;;;;;;13.70;100.00;101548.34;2093575;28;20052;-78
2022/12/22 07:27:34;;;;;;;28.63;20.15;;;;;;;13.73;100.00;101545.72;2092444;28;20044;-77
2022/12/22 07:28:56;;;;;;;21.83;18.38;;;;;;;13.79;100.00;101545.81;2100693;28;20114;-78
2022/12/22 07:30:18;;;;;;;25.20;21.02;;;;;;;13.82;100.00;101544.13;2095045;28;20064;-77
2022/12/22 07:31:40;;;;;;;26.85;22.67;;;;;;;13.88;100.00;101538.00;2083532;28;20147;-77
2022/12/22 07:33:02;;;;;;;29.48;24.90;;;;;;;13.93;100.00;101544.25;2089757;28;20063;-77
2022/12/22 07:34:24;;;;;;;30.67;27.13;;;;;;;13.95;100.00;101542.53;2088532;28;20059;-77
2022/12/22 07:35:47;;;;;;;32.58;26.95;;;;;;;14.01;100.00;101544.38;2092972;28;20428;-77
2022/12/22 07:37:09;;;;;;;39.15;33.88;;;;;;;14.06;100.00;101542.66;2100572;28;20055;-77
2022/12/22 07:38:37;;;;;;;36.58;31.83;;;;;;;14.13;100.00;101544.53;2086777;28;20045;-75
2022/12/22 07:40:00;;;;;;;26.65;21.83;;;;;;;14.14;100.00;101539.25;2099154;28;20051;-77
2022/12/22 07:43:02;;;;;;;18.35;15.25;;;;;;;14.24;100.00;101545.59;2105811;28;20040;-78
2022/12/22 07:44:23;;;;;;;20.70;15.48;;;;;;;14.26;100.00;101544.72;2091904;28;20511;-75
2022/12/22 07:45:46;;;;;;;17.35;12.52;;;;;;;14.32;100.00;101543.91;2100414;28;20578;-76
2022/12/22 07:47:09;;;;;;;19.23;15.13;;;;;;;14.38;100.00;101540.47;2102745;28;20047;-77
2022/12/22 07:50:27;;;;;;;27.48;23.33;;;;;;;14.52;100.00;101549.50;2067044;28;20081;-76
2022/12/22 07:51:51;;;;;;;21.33;17.13;;;;;;;14.58;100.00;101546.91;2060303;28;20050;-75
2022/12/22 07:53:14;;;;;;;17.98;14.32;;;;;;;14.62;100.00;101554.06;2091747;28;20107;-78
2022/12/22 07:54:36;;;;;;;18.38;13.68;;;;;;;14.63;100.00;101547.88;2100877;28;20043;-77
2022/12/22 07:56:03;;;;;;;16.23;12.75;;;;;;;14.68;100.00;101546.16;2097663;28;20047;-78
2022/12/22 07:57:26;;;;;;;16.02;10.45;;;;;;;14.70;100.00;101550.59;2087014;28;20564;-79
2022/12/22 07:58:47;;;;;;;7.88;5.88;;;;;;;14.70;100.00;101549.75;2099987;28;20142;-79
2022/12/22 08:00:10;;;;;;;10.10;6.10;;;;;;;14.68;100.00;101546.16;2088545;28;20041;-79
2022/12/22 08:01:36;;;;;;;11.02;5.65;;;;;;;14.68;100.00;101547.06;2097270;28;20056;-79
2022/12/22 08:03:00;;;;;;;11.60;6.47;;;;;;;14.71;100.00;101551.50;2108942;28;20048;-78
2022/12/22 08:04:23;;;;;;;10.93;5.43;;;;;;;14.71;100.00;101554.16;2105514;28;20419;-80
2022/12/22 08:05:46;;;;;;;8.88;5.40;;;;;;;14.70;100.00;101550.59;2105349;28;20114;-77
2022/12/22 08:07:10;;;;;;;10.60;5.85;;;;;;;14.75;100.00;101548.91;2093734;28;20056;-76
2022/12/22 08:08:34;;;;;;;8.93;5.60;;;;;;;14.79;100.00;101549.81;2092579;28;20052;-77
2022/12/22 08:09:56;;;;;;;20.40;14.43;;;;;;;14.84;100.00;101549.88;2100241;28;20479;-76
2022/12/22 08:11:19;;;;;;;27.45;19.60;;;;;;;14.88;100.00;101549.03;2093356;28;20771;-76
2022/12/22 08:12:42;;;;;;;28.77;23.90;;;;;;;14.93;100.00;101549.97;2088071;28;20130;-76
2022/12/22 08:14:05;;;;;;;24.45;18.88;;;;;;;14.95;100.00;101540.25;2091040;28;20053;-78
2022/12/22 08:15:27;;;;;;;22.40;18.73;;;;;;;14.96;100.00;101542.94;2097499;28;20044;-75
2022/12/22 08:16:50;;;;;;;22.95;14.88;;;;;;;14.99;100.00;101542.06;2088872;28;20048;-76
2022/12/22 08:18:12;;;;;;;28.92;18.98;;;;;;;15.00;100.00;101538.53;2099693;28;20056;-75
2022/12/22 08:19:34;;;;;;;31.40;22.23;;;;;;;15.01;100.00;101535.91;2099755;28;20048;-76
2022/12/22 08:20:57;;;;;;;30.15;22.10;;;;;;;15.06;100.00;101538.59;2100030;28;20047;-75
2022/12/22 08:22:22;;;;;;;28.95;20.02;;;;;;;15.09;100.00;101541.28;2096168;28;20075;-75
2022/12/22 08:23:45;;;;;;;20.40;14.93;;;;;;;15.12;100.00;101539.53;2099944;28;20051;-76
2022/12/22 08:25:07;;;;;;;20.63;13.77;;;;;;;15.15;100.00;101534.25;2106172;28;20040;-76
2022/12/22 08:26:34;;;;;;;19.20;10.68;;;;;;;15.21;100.00;101536.09;2095201;28;20048;-76
2022/12/22 08:27:58;;;;;;;14.65;9.02;;;;;;;15.25;100.00;101535.22;2102655;28;20040;-76
2022/12/22 08:29:24;;;;;;;16.08;8.05;;;;;;;15.30;100.00;101532.59;2103174;28;20052;-76
2022/12/22 08:30:47;;;;;;;14.43;6.53;;;;;;;15.34;100.00;101530.00;2096014;28;20424;-76
2022/12/22 08:32:10;;;;;;;11.23;5.82;;;;;;;15.37;100.00;101534.44;2092420;28;20045;-77
2022/12/22 08:33:33;;;;;;;18.63;5.72;;;;;;;15.37;100.00;101530.00;2095242;28;20073;-76
2022/12/22 08:34:55;;;;;;;11.65;5.18;;;;;;;15.38;100.00;101528.22;2092401;28;20182;-76
2022/12/22 08:36:18;;;;;;;14.55;5.38;;;;;;;15.40;100.00;101524.72;2092250;28;20043;-76
2022/12/22 08:37:44;;;;;;;11.93;6.35;;;;;;;15.43;100.00;101523.84;2101067;28;20051;-75
2022/12/22 08:39:07;;;;;;;16.17;8.75;;;;;;;15.45;100.00;101522.09;2097932;28;20354;-75
2022/12/22 08:40:32;;;;;;;17.33;8.70;;;;;;;15.46;100.00;101523.88;2095095;28;20041;-76
2022/12/22 08:41:55;;;;;;;14.13;8.27;;;;;;;15.48;100.00;101517.69;2086744;28;20045;-76
2022/12/22 08:43:19;;;;;;;14.57;6.97;;;;;;;15.50;100.00;101518.56;2104684;28;20377;-76
2022/12/22 08:44:41;;;;;;;16.60;8.05;;;;;;;15.53;100.00;101518.66;2089315;28;20048;-76
2022/12/22 08:46:04;;;;;;;18.27;8.60;;;;;;;15.56;100.00;101511.56;2092577;28;20051;-76
2022/12/22 08:47:26;;;;;;;21.33;11.85;;;;;;;15.56;100.00;101516.91;2100927;28;20566;-76
2022/12/22 08:48:48;;;;;;;20.33;11.60;;;;;;;15.58;100.00;101517.78;2102520;28;20052;-76
2022/12/22 08:50:12;;;;;;;21.08;11.07;;;;;;;15.62;100.00;101517.78;2103569;28;20047;-76
2022/12/22 08:51:35;;;;;;;16.85;11.00;;;;;;;15.66;100.00;101516.97;2094575;28;20048;-75
2022/12/22 08:53:04;;;;;;;19.30;10.90;;;;;;;15.72;100.00;101511.69;2100677;28;20136;-76
2022/12/22 08:54:26;;;;;;;16.95;11.10;;;;;;;15.74;100.00;101512.59;2105761;28;20043;-75
2022/12/22 08:55:53;;;;;;;17.15;10.10;;;;;;;15.79;100.00;101510.84;2103266;28;20040;-76
2022/12/22 08:57:15;;;;;;;17.05;8.88;;;;;;;15.81;100.00;101508.19;2102069;28;20044;-76
2022/12/22 08:58:39;;;;;;;15.57;9.05;;;;;;;15.84;100.00;101508.19;2111384;28;20035;-75
2022/12/22 09:00:01;;;;;;;15.40;7.32;;;;;;;15.84;100.00;101509.09;2106000;28;20048;-77
2022/12/22 09:01:24;;;;;;;16.73;7.43;;;;;;;15.85;100.00;101504.66;2111494;28;20039;-76
2022/12/22 09:02:46;;;;;;;10.02;5.55;;;;;;;15.88;100.00;101508.22;2101222;28;20052;-76
2022/12/22 09:04:08;;;;;;;13.50;7.47;;;;;;;15.90;100.00;101503.78;2103244;28;20586;-76
2022/12/22 09:05:32;;;;;;;13.75;7.35;;;;;;;15.94;100.00;101497.63;2103169;28;20052;-76
2022/12/22 09:06:55;;;;;;;13.70;7.32;;;;;;;15.98;100.00;101508.28;2103160;28;20040;-75
2022/12/22 09:08:18;;;;;;;11.35;5.93;;;;;;;16.01;100.00;101497.66;2103233;28;20408;-76
2022/12/22 09:09:41;;;;;;;11.63;6.82;;;;;;;16.07;100.00;101505.69;2096852;28;20035;-75
2022/12/22 09:11:03;;;;;;;17.48;8.57;;;;;;;16.12;100.00;101502.16;2095939;28;20048;-75
2022/12/22 09:12:26;;;;;;;18.70;11.57;;;;;;;16.17;100.00;101502.16;2094852;28;20110;-76
2022/12/22 09:13:50;;;;;;;20.08;11.70;;;;;;;16.20;100.00;101497.75;2102415;28;20693;-76
2022/12/22 09:15:13;;;;;;;15.20;9.00;;;;;;;16.22;100.00;101501.28;2093543;28;20095;-76
2022/12/22 09:16:35;;;;;;;15.82;9.07;;;;;;;16.24;100.00;101490.63;2092198;28;20053;-75
2022/12/22 09:17:58;;;;;;;20.77;9.73;;;;;;;16.27;100.00;101494.22;2103097;28;20462;-76
2022/12/22 09:19:20;;;;;;;17.63;10.00;;;;;;;16.31;100.00;101495.13;2104966;28;20054;-76
2022/12/22 09:20:42;;;;;;;13.40;8.65;;;;;;;16.32;100.00;101491.56;2105234;28;20063;-76
2022/12/22 09:22:05;;;;;;;17.55;10.43;;;;;;;16.31;100.00;101490.69;2102969;28;20058;-76
2022/12/22 09:23:30;;;;;;;15.98;9.60;;;;;;;16.31;100.00;101489.78;2102232;28;20047;-75
2022/12/22 09:24:53;;;;;;;16.00;8.82;;;;;;;16.31;100.00;101481.78;2105582;28;20373;-76
2022/12/22 09:26:18;;;;;;;14.40;8.80;;;;;;;16.32;100.00;101479.13;2099484;28;20044;-76
2022/12/22 09:27:40;;;;;;;12.13;7.70;;;;;;;16.35;100.00;101483.56;2103465;28;20131;-75
2022/12/22 09:29:03;;;;;;;19.20;13.23;;;;;;;16.38;100.00;101486.25;2104876;28;20051;-76
2022/12/22 09:30:26;;;;;;;27.48;15.30;;;;;;;16.40;100.00;101479.16;2102771;28;20500;-76
2022/12/22 09:31:48;;;;;;;27.35;17.73;;;;;;;16.42;100.00;101477.38;2094924;28;20438;-76
2022/12/22 09:33:11;;;;;;;23.33;15.75;;;;;;;16.46;100.00;101472.97;2101987;28;20085;-76
2022/12/22 09:34:34;;;;;;;17.27;10.70;;;;;;;16.46;100.00;101478.28;2094328;28;20048;-76
2022/12/22 09:35:56;;;;;;;17.48;9.98;;;;;;;16.46;100.00;101471.19;2094977;28;20048;-76
2022/12/22 09:37:31;;;;;;;12.65;7.95;;;;;;;16.51;100.00;101474.75;2088124;28;20094;-75
2022/12/22 09:38:55;;;;;;;13.13;6.25;;;;;;;16.55;100.00;101471.19;2083833;28;20107;-76
2022/12/22 09:40:20;;;;;;;11.93;6.18;;;;;;;16.58;100.00;101465.00;2092516;28;20048;-76
2022/12/22 09:41:46;;;;;;;9.23;5.10;;;;;;;16.61;100.00;101463.25;2094501;28;20103;-76
2022/12/22 09:43:13;;;;;;;9.18;4.95;;;;;;;16.65;100.00;101465.06;2095025;28;20433;-75
2022/12/22 09:44:40;;;;;;;9.02;5.00;;;;;;;16.71;100.00;101472.16;2094947;28;20066;-75
2022/12/22 09:46:03;;;;;;;8.68;4.60;;;;;;;16.78;100.00;101459.75;2087353;28;20064;-76
2022/12/22 09:47:32;;;;;;;10.18;4.70;;;;;;;16.83;100.00;101456.19;2097600;28;20048;-76
2022/12/22 09:48:54;;;;;;;6.57;4.22;;;;;;;16.87;100.00;101468.63;2103735;28;20573;-76
2022/12/22 09:50:20;;;;;;;9.10;4.32;;;;;;;16.90;100.00;101455.31;2102960;28;20408;-76
2022/12/22 09:51:45;;;;;;;6.30;3.80;;;;;;;16.95;100.00;101461.53;2102844;28;20047;-76
2022/12/22 09:53:13;;;;;;;7.50;3.38;;;;;;;17.00;100.00;101454.41;2094969;28;20044;-76
2022/12/22 09:54:37;;;;;;;10.65;4.60;;;;;;;17.02;100.00;101457.97;2103938;28;20048;-75
2022/12/22 09:56:00;;;;;;;7.75;4.25;;;;;;;17.05;100.00;101457.09;2093994;28;20052;-75